Terminal Aerodrome Forecast
Issued by NWS Buffalo, NY

Home | Current Version | Previous Version | Text Only | Print | Product List | Glossary On
Versions: 1 2 3 4 5 6 7 8 9 10 11 12 13 14 15 16 17 18 19 20 21 22 23 24 25
000
FTUS41 KBUF 250245 AAA
TAFART
TAF AMD
KART 250245Z 2503/2524 VRB03KT 4SM BR BKN005
     FM250400 06008KT 4SM BR BKN025
     FM251000 17017G28KT P6SM OVC080
     FM251600 18018G30KT P6SM VCSH OVC020
     FM251800 21014G26KT 6SM SHRA OVC003
     FM252200 23016G31KT P6SM -SHRA OVC007=

USA.gov is the U.S. government's official web portal to all federal, state and local government web resources and services.